sensor_id;sensor_type;location;lat;lon;timestamp;temperature;humidity
67249;SHT31;63247;54.300;18.592;2023-11-19T00:00:26;1.47;99.99
67249;SHT31;63247;54.300;18.592;2023-11-19T00:02:52;1.46;99.99
67249;SHT31;63247;54.300;18.592;2023-11-19T00:05:17;1.40;99.99
67249;SHT31;63247;54.300;18.592;2023-11-19T00:07:43;1.47;99.99
67249;SHT31;63247;54.300;18.592;2023-11-19T00:10:13;1.51;99.99
67249;SHT31;63247;54.300;18.592;2023-11-19T00:12:41;1.43;99.99
67249;SHT31;63247;54.300;18.592;2023-11-19T00:15:07;1.46;99.99
67249;SHT31;63247;54.300;18.592;2023-11-19T00:17:40;1.42;99.99
67249;SHT31;63247;54.300;18.592;2023-11-19T00:20:06;1.46;99.99
67249;SHT31;63247;54.300;18.592;2023-11-19T00:22:33;1.47;99.99
67249;SHT31;63247;54.300;18.592;2023-11-19T00:24:59;1.46;99.99
67249;SHT31;63247;54.300;18.592;2023-11-19T00:27:25;1.53;99.99
67249;SHT31;63247;54.300;18.592;2023-11-19T00:29:50;1.42;99.99
67249;SHT31;63247;54.300;18.592;2023-11-19T00:32:16;1.46;99.99
67249;SHT31;63247;54.300;18.592;2023-11-19T00:34:44;1.39;99.99
67249;SHT31;63247;54.300;18.592;2023-11-19T00:37:09;1.30;99.99
67249;SHT31;63247;54.300;18.592;2023-11-19T00:39:35;1.38;99.99
67249;SHT31;63247;54.300;18.592;2023-11-19T00:42:00;1.35;99.99
67249;SHT31;63247;54.300;18.592;2023-11-19T00:44:25;1.32;99.99
67249;SHT31;63247;54.300;18.592;2023-11-19T00:46:51;1.30;99.99
67249;SHT31;63247;54.300;18.592;2023-11-19T00:49:16;1.28;99.99
67249;SHT31;63247;54.300;18.592;2023-11-19T00:51:42;1.30;99.99
67249;SHT31;63247;54.300;18.592;2023-11-19T00:54:07;1.30;99.99
67249;SHT31;63247;54.300;18.592;2023-11-19T00:56:32;1.38;99.99
67249;SHT31;63247;54.300;18.592;2023-11-19T00:58:58;1.35;99.99
67249;SHT31;63247;54.300;18.592;2023-11-19T01:01:25;1.33;99.99
67249;SHT31;63247;54.300;18.592;2023-11-19T01:03:50;1.28;99.99
67249;SHT31;63247;54.300;18.592;2023-11-19T01:06:27;1.32;99.99
67249;SHT31;63247;54.300;18.592;2023-11-19T01:08:52;1.29;99.99
67249;SHT31;63247;54.300;18.592;2023-11-19T01:11:21;1.28;99.99
67249;SHT31;63247;54.300;18.592;2023-11-19T01:13:47;1.28;99.99
67249;SHT31;63247;54.300;18.592;2023-11-19T01:16:13;1.28;99.99
67249;SHT31;63247;54.300;18.592;2023-11-19T01:18:38;1.28;99.99
67249;SHT31;63247;54.300;18.592;2023-11-19T01:21:05;1.32;99.99
67249;SHT31;63247;54.300;18.592;2023-11-19T01:23:30;1.30;99.99
67249;SHT31;63247;54.300;18.592;2023-11-19T01:25:55;1.22;99.99
67249;SHT31;63247;54.300;18.592;2023-11-19T01:28:21;1.26;99.99
67249;SHT31;63247;54.300;18.592;2023-11-19T01:30:46;1.25;99.99
67249;SHT31;63247;54.300;18.592;2023-11-19T01:33:12;1.26;99.99
67249;SHT31;63247;54.300;18.592;2023-11-19T01:35:37;1.26;99.99
67249;SHT31;63247;54.300;18.592;2023-11-19T01:38:03;1.20;99.99
67249;SHT31;63247;54.300;18.592;2023-11-19T01:40:28;1.13;99.99
67249;SHT31;63247;54.300;18.592;2023-11-19T01:42:54;1.16;99.99
67249;SHT31;63247;54.300;18.592;2023-11-19T01:45:27;1.23;99.99
67249;SHT31;63247;54.300;18.592;2023-11-19T01:47:55;1.09;99.99
67249;SHT31;63247;54.300;18.592;2023-11-19T01:50:21;1.06;99.99
67249;SHT31;63247;54.300;18.592;2023-11-19T01:52:46;1.08;99.99
67249;SHT31;63247;54.300;18.592;2023-11-19T01:55:12;1.05;99.99
67249;SHT31;63247;54.300;18.592;2023-11-19T01:57:38;1.01;99.99
67249;SHT31;63247;54.300;18.592;2023-11-19T02:00:06;0.99;99.99
67249;SHT31;63247;54.300;18.592;2023-11-19T02:02:36;0.99;99.99
67249;SHT31;63247;54.300;18.592;2023-11-19T02:05:02;1.02;99.99
67249;SHT31;63247;54.300;18.592;2023-11-19T02:07:28;1.05;99.99
67249;SHT31;63247;54.300;18.592;2023-11-19T02:09:53;0.98;99.99
67249;SHT31;63247;54.300;18.592;2023-11-19T02:12:19;0.99;99.99
67249;SHT31;63247;54.300;18.592;2023-11-19T02:14:45;0.93;99.99
67249;SHT31;63247;54.300;18.592;2023-11-19T02:17:27;1.06;99.99
67249;SHT31;63247;54.300;18.592;2023-11-19T02:19:52;1.01;99.99
67249;SHT31;63247;54.300;18.592;2023-11-19T02:22:18;1.02;99.99
67249;SHT31;63247;54.300;18.592;2023-11-19T02:24:45;1.03;99.99
67249;SHT31;63247;54.300;18.592;2023-11-19T02:27:18;0.95;99.99
67249;SHT31;63247;54.300;18.592;2023-11-19T02:29:45;0.92;99.99
67249;SHT31;63247;54.300;18.592;2023-11-19T02:32:10;0.96;99.99
67249;SHT31;63247;54.300;18.592;2023-11-19T02:34:38;0.91;99.99
67249;SHT31;63247;54.300;18.592;2023-11-19T02:37:04;0.93;99.99
67249;SHT31;63247;54.300;18.592;2023-11-19T02:39:30;0.99;99.99
67249;SHT31;63247;54.300;18.592;2023-11-19T02:41:56;1.01;99.99
67249;SHT31;63247;54.300;18.592;2023-11-19T02:44:21;1.02;99.99
67249;SHT31;63247;54.300;18.592;2023-11-19T02:46:47;0.95;99.99
67249;SHT31;63247;54.300;18.592;2023-11-19T02:49:14;1.03;99.99
67249;SHT31;63247;54.300;18.592;2023-11-19T02:51:40;1.12;99.99
67249;SHT31;63247;54.300;18.592;2023-11-19T02:54:05;1.13;99.99
67249;SHT31;63247;54.300;18.592;2023-11-19T02:56:31;1.15;99.99
67249;SHT31;63247;54.300;18.592;2023-11-19T02:59:00;1.18;99.99
67249;SHT31;63247;54.300;18.592;2023-11-19T03:01:32;1.08;99.99
67249;SHT31;63247;54.300;18.592;2023-11-19T03:04:00;0.92;99.99
67249;SHT31;63247;54.300;18.592;2023-11-19T03:06:26;0.85;99.99
67249;SHT31;63247;54.300;18.592;2023-11-19T03:08:54;0.91;99.99
67249;SHT31;63247;54.300;18.592;2023-11-19T03:11:19;0.82;99.99
67249;SHT31;63247;54.300;18.592;2023-11-19T03:13:45;0.88;99.99
67249;SHT31;63247;54.300;18.592;2023-11-19T03:16:12;0.82;99.99
67249;SHT31;63247;54.300;18.592;2023-11-19T03:18:38;0.93;99.99
67249;SHT31;63247;54.300;18.592;2023-11-19T03:21:05;1.02;99.99
67249;SHT31;63247;54.300;18.592;2023-11-19T03:23:31;1.01;99.99
67249;SHT31;63247;54.300;18.592;2023-11-19T03:25:56;0.98;99.99
67249;SHT31;63247;54.300;18.592;2023-11-19T03:28:22;0.88;99.99
67249;SHT31;63247;54.300;18.592;2023-11-19T03:30:47;0.89;99.99
67249;SHT31;63247;54.300;18.592;2023-11-19T03:33:13;0.78;99.99
67249;SHT31;63247;54.300;18.592;2023-11-19T03:35:38;0.68;99.99
67249;SHT31;63247;54.300;18.592;2023-11-19T03:38:05;0.56;99.99
67249;SHT31;63247;54.300;18.592;2023-11-19T03:40:30;0.54;99.99
67249;SHT31;63247;54.300;18.592;2023-11-19T03:42:56;0.54;99.99
67249;SHT31;63247;54.300;18.592;2023-11-19T03:45:23;0.51;99.99
67249;SHT31;63247;54.300;18.592;2023-11-19T03:47:48;0.56;99.99
67249;SHT31;63247;54.300;18.592;2023-11-19T03:50:15;0.49;99.99
67249;SHT31;63247;54.300;18.592;2023-11-19T03:52:41;0.54;99.99
67249;SHT31;63247;54.300;18.592;2023-11-19T03:55:06;0.44;99.99
67249;SHT31;63247;54.300;18.592;2023-11-19T03:57:34;0.53;99.99
67249;SHT31;63247;54.300;18.592;2023-11-19T03:59:59;0.53;99.99
67249;SHT31;63247;54.300;18.592;2023-11-19T04:02:26;0.57;99.99
67249;SHT31;63247;54.300;18.592;2023-11-19T04:04:54;0.54;99.99
67249;SHT31;63247;54.300;18.592;2023-11-19T04:07:20;0.46;99.99
67249;SHT31;63247;54.300;18.592;2023-11-19T04:09:46;0.47;99.99
67249;SHT31;63247;54.300;18.592;2023-11-19T04:12:12;0.50;99.99
67249;SHT31;63247;54.300;18.592;2023-11-19T04:14:37;0.40;99.99
67249;SHT31;63247;54.300;18.592;2023-11-19T04:17:02;0.54;99.99
67249;SHT31;63247;54.300;18.592;2023-11-19T04:19:28;0.47;99.99
67249;SHT31;63247;54.300;18.592;2023-11-19T04:21:53;0.60;99.99
67249;SHT31;63247;54.300;18.592;2023-11-19T04:24:19;0.46;99.99
67249;SHT31;63247;54.300;18.592;2023-11-19T04:26:45;0.43;99.99
67249;SHT31;63247;54.300;18.592;2023-11-19T04:29:14;0.43;99.99
67249;SHT31;63247;54.300;18.592;2023-11-19T04:31:40;0.37;99.99
67249;SHT31;63247;54.300;18.592;2023-11-19T04:34:07;0.40;99.99
67249;SHT31;63247;54.300;18.592;2023-11-19T04:36:33;0.41;99.99
67249;SHT31;63247;54.300;18.592;2023-11-19T04:38:59;0.43;99.99
67249;SHT31;63247;54.300;18.592;2023-11-19T04:41:26;0.46;99.99
67249;SHT31;63247;54.300;18.592;2023-11-19T04:43:53;0.39;99.99
67249;SHT31;63247;54.300;18.592;2023-11-19T04:46:18;0.40;99.99
67249;SHT31;63247;54.300;18.592;2023-11-19T04:48:44;0.46;99.99
67249;SHT31;63247;54.300;18.592;2023-11-19T04:51:09;0.50;99.99
67249;SHT31;63247;54.300;18.592;2023-11-19T04:53:35;0.46;99.99
67249;SHT31;63247;54.300;18.592;2023-11-19T04:56:00;0.41;99.99
67249;SHT31;63247;54.300;18.592;2023-11-19T04:58:28;0.44;99.99
67249;SHT31;63247;54.300;18.592;2023-11-19T05:00:54;0.37;99.99
67249;SHT31;63247;54.300;18.592;2023-11-19T05:03:19;0.40;99.99
67249;SHT31;63247;54.300;18.592;2023-11-19T05:05:44;0.44;99.99
67249;SHT31;63247;54.300;18.592;2023-11-19T05:08:10;0.39;99.99
67249;SHT31;63247;54.300;18.592;2023-11-19T05:10:36;0.39;99.99
67249;SHT31;63247;54.300;18.592;2023-11-19T05:13:02;0.40;99.99
67249;SHT31;63247;54.300;18.592;2023-11-19T05:15:27;0.29;99.99
67249;SHT31;63247;54.300;18.592;2023-11-19T05:17:53;0.26;99.99
67249;SHT31;63247;54.300;18.592;2023-11-19T05:20:18;0.29;99.99
67249;SHT31;63247;54.300;18.592;2023-11-19T05:22:43;0.34;99.99
67249;SHT31;63247;54.300;18.592;2023-11-19T05:25:09;0.32;99.99
67249;SHT31;63247;54.300;18.592;2023-11-19T05:27:36;0.30;99.99
67249;SHT31;63247;54.300;18.592;2023-11-19T05:30:03;0.23;99.99
67249;SHT31;63247;54.300;18.592;2023-11-19T05:32:29;0.20;99.99
67249;SHT31;63247;54.300;18.592;2023-11-19T05:34:54;0.22;99.99
67249;SHT31;63247;54.300;18.592;2023-11-19T05:37:19;0.12;99.99
67249;SHT31;63247;54.300;18.592;2023-11-19T05:39:45;0.09;99.99
67249;SHT31;63247;54.300;18.592;2023-11-19T05:42:10;0.07;99.99
67249;SHT31;63247;54.300;18.592;2023-11-19T05:44:36;0.03;99.99
67249;SHT31;63247;54.300;18.592;2023-11-19T05:47:02;-0.07;99.99
67249;SHT31;63247;54.300;18.592;2023-11-19T05:49:27;-0.01;99.99
67249;SHT31;63247;54.300;18.592;2023-11-19T05:51:53;0.01;99.99
67249;SHT31;63247;54.300;18.592;2023-11-19T05:54:21;0.02;99.99
67249;SHT31;63247;54.300;18.592;2023-11-19T05:56:49;-0.08;99.99
67249;SHT31;63247;54.300;18.592;2023-11-19T05:59:15;-0.02;99.99
67249;SHT31;63247;54.300;18.592;2023-11-19T06:01:43;-0.07;99.99
67249;SHT31;63247;54.300;18.592;2023-11-19T06:04:08;-0.23;99.99
67249;SHT31;63247;54.300;18.592;2023-11-19T06:06:34;-0.11;99.99
67249;SHT31;63247;54.300;18.592;2023-11-19T06:08:59;-0.19;99.99
67249;SHT31;63247;54.300;18.592;2023-11-19T06:11:24;-0.15;99.99
67249;SHT31;63247;54.300;18.592;2023-11-19T06:13:52;-0.19;99.99
67249;SHT31;63247;54.300;18.592;2023-11-19T06:16:18;-0.19;99.99
67249;SHT31;63247;54.300;18.592;2023-11-19T06:18:43;-0.16;99.99
67249;SHT31;63247;54.300;18.592;2023-11-19T06:21:09;-0.28;99.99
67249;SHT31;63247;54.300;18.592;2023-11-19T06:23:35;-0.22;99.99
67249;SHT31;63247;54.300;18.592;2023-11-19T06:26:00;-0.25;99.99
67249;SHT31;63247;54.300;18.592;2023-11-19T06:28:26;-0.26;99.99
67249;SHT31;63247;54.300;18.592;2023-11-19T06:30:51;-0.23;99.99
67249;SHT31;63247;54.300;18.592;2023-11-19T06:33:17;-0.35;99.99
67249;SHT31;63247;54.300;18.592;2023-11-19T06:35:42;-0.33;99.99
67249;SHT31;63247;54.300;18.592;2023-11-19T06:38:08;-0.33;99.99
67249;SHT31;63247;54.300;18.592;2023-11-19T06:40:34;-0.28;99.99
67249;SHT31;63247;54.300;18.592;2023-11-19T06:43:03;-0.23;99.99
67249;SHT31;63247;54.300;18.592;2023-11-19T06:45:29;-0.22;99.99
67249;SHT31;63247;54.300;18.592;2023-11-19T06:47:55;-0.12;99.99
67249;SHT31;63247;54.300;18.592;2023-11-19T06:50:20;-0.05;99.99
67249;SHT31;63247;54.300;18.592;2023-11-19T06:52:46;-0.02;99.99
67249;SHT31;63247;54.300;18.592;2023-11-19T06:55:11;-0.18;99.99
67249;SHT31;63247;54.300;18.592;2023-11-19T06:57:37;-0.01;99.99
67249;SHT31;63247;54.300;18.592;2023-11-19T07:00:03;0.03;99.99
67249;SHT31;63247;54.300;18.592;2023-11-19T07:02:31;0.03;99.99
67249;SHT31;63247;54.300;18.592;2023-11-19T07:04:56;0.05;99.99
67249;SHT31;63247;54.300;18.592;2023-11-19T07:07:22;0.06;99.99
67249;SHT31;63247;54.300;18.592;2023-11-19T07:09:47;0.03;99.99
67249;SHT31;63247;54.300;18.592;2023-11-19T07:12:13;0.03;99.99
67249;SHT31;63247;54.300;18.592;2023-11-19T07:14:39;0.09;99.99
67249;SHT31;63247;54.300;18.592;2023-11-19T07:17:05;0.14;99.99
67249;SHT31;63247;54.300;18.592;2023-11-19T07:19:30;0.13;99.99
67249;SHT31;63247;54.300;18.592;2023-11-19T07:21:55;0.03;99.99
67249;SHT31;63247;54.300;18.592;2023-11-19T07:24:21;0.27;99.99
67249;SHT31;63247;54.300;18.592;2023-11-19T07:26:47;0.39;99.99
67249;SHT31;63247;54.300;18.592;2023-11-19T07:29:13;0.30;99.99
67249;SHT31;63247;54.300;18.592;2023-11-19T07:31:40;0.39;99.99
67249;SHT31;63247;54.300;18.592;2023-11-19T07:34:05;0.32;99.99
67249;SHT31;63247;54.300;18.592;2023-11-19T07:36:32;0.27;99.99
67249;SHT31;63247;54.300;18.592;2023-11-19T07:38:58;0.33;99.99
67249;SHT31;63247;54.300;18.592;2023-11-19T07:41:24;0.43;99.99
67249;SHT31;63247;54.300;18.592;2023-11-19T07:43:50;0.43;99.99
67249;SHT31;63247;54.300;18.592;2023-11-19T07:46:17;0.34;99.99
67249;SHT31;63247;54.300;18.592;2023-11-19T07:48:45;0.32;99.99
67249;SHT31;63247;54.300;18.592;2023-11-19T07:51:13;0.37;99.99
67249;SHT31;63247;54.300;18.592;2023-11-19T07:53:39;0.43;99.99
67249;SHT31;63247;54.300;18.592;2023-11-19T07:56:06;0.49;99.99
67249;SHT31;63247;54.300;18.592;2023-11-19T07:58:31;0.24;99.99
67249;SHT31;63247;54.300;18.592;2023-11-19T08:00:57;0.49;99.99
67249;SHT31;63247;54.300;18.592;2023-11-19T08:03:22;0.58;99.99
67249;SHT31;63247;54.300;18.592;2023-11-19T08:05:48;0.75;99.99
67249;SHT31;63247;54.300;18.592;2023-11-19T08:08:13;0.70;99.99
67249;SHT31;63247;54.300;18.592;2023-11-19T08:10:40;0.89;99.99
67249;SHT31;63247;54.300;18.592;2023-11-19T08:13:05;0.74;99.99
67249;SHT31;63247;54.300;18.592;2023-11-19T08:15:31;0.91;99.99
67249;SHT31;63247;54.300;18.592;2023-11-19T08:17:56;0.85;99.99
67249;SHT31;63247;54.300;18.592;2023-11-19T08:20:22;0.89;99.99
67249;SHT31;63247;54.300;18.592;2023-11-19T08:22:48;1.02;99.99
67249;SHT31;63247;54.300;18.592;2023-11-19T08:25:14;0.91;99.99
67249;SHT31;63247;54.300;18.592;2023-11-19T08:27:39;0.88;99.99
67249;SHT31;63247;54.300;18.592;2023-11-19T08:30:05;1.06;99.99
67249;SHT31;63247;54.300;18.592;2023-11-19T08:32:31;0.93;99.99
67249;SHT31;63247;54.300;18.592;2023-11-19T08:34:57;0.70;99.99
67249;SHT31;63247;54.300;18.592;2023-11-19T08:37:22;0.70;99.99
67249;SHT31;63247;54.300;18.592;2023-11-19T08:39:48;0.72;99.99
67249;SHT31;63247;54.300;18.592;2023-11-19T08:42:14;0.61;99.99
67249;SHT31;63247;54.300;18.592;2023-11-19T08:44:39;0.62;99.99
67249;SHT31;63247;54.300;18.592;2023-11-19T08:47:08;0.74;99.99
67249;SHT31;63247;54.300;18.592;2023-11-19T08:49:34;0.70;99.99
67249;SHT31;63247;54.300;18.592;2023-11-19T08:52:00;0.78;99.99
67249;SHT31;63247;54.300;18.592;2023-11-19T08:54:25;0.88;99.99
67249;SHT31;63247;54.300;18.592;2023-11-19T08:56:51;0.80;99.99
67249;SHT31;63247;54.300;18.592;2023-11-19T08:59:16;0.85;99.99
67249;SHT31;63247;54.300;18.592;2023-11-19T09:01:42;0.91;99.99
67249;SHT31;63247;54.300;18.592;2023-11-19T09:04:07;0.89;99.99
67249;SHT31;63247;54.300;18.592;2023-11-19T09:06:33;1.13;99.99
67249;SHT31;63247;54.300;18.592;2023-11-19T09:09:00;1.15;99.99
67249;SHT31;63247;54.300;18.592;2023-11-19T09:11:28;1.02;99.99
67249;SHT31;63247;54.300;18.592;2023-11-19T09:13:54;1.06;99.99
67249;SHT31;63247;54.300;18.592;2023-11-19T09:16:20;1.06;99.99
67249;SHT31;63247;54.300;18.592;2023-11-19T09:18:45;0.82;99.99
67249;SHT31;63247;54.300;18.592;2023-11-19T09:21:11;0.92;99.99
67249;SHT31;63247;54.300;18.592;2023-11-19T09:23:36;0.85;99.99
67249;SHT31;63247;54.300;18.592;2023-11-19T09:26:05;0.87;99.99
67249;SHT31;63247;54.300;18.592;2023-11-19T09:28:31;0.88;99.99
67249;SHT31;63247;54.300;18.592;2023-11-19T09:30:56;0.80;99.93
67249;SHT31;63247;54.300;18.592;2023-11-19T09:33:22;0.98;99.99
67249;SHT31;63247;54.300;18.592;2023-11-19T09:35:47;1.12;99.99
67249;SHT31;63247;54.300;18.592;2023-11-19T09:38:15;1.09;99.85
67249;SHT31;63247;54.300;18.592;2023-11-19T09:40:40;1.01;99.99
67249;SHT31;63247;54.300;18.592;2023-11-19T09:43:07;0.92;99.92
67249;SHT31;63247;54.300;18.592;2023-11-19T09:45:45;0.99;99.99
67249;SHT31;63247;54.300;18.592;2023-11-19T09:48:15;1.06;99.99
67249;SHT31;63247;54.300;18.592;2023-11-19T09:50:42;1.01;99.99
67249;SHT31;63247;54.300;18.592;2023-11-19T09:53:07;0.95;99.99
67249;SHT31;63247;54.300;18.592;2023-11-19T09:55:32;0.84;99.99
67249;SHT31;63247;54.300;18.592;2023-11-19T09:57:58;0.81;99.99
67249;SHT31;63247;54.300;18.592;2023-11-19T10:00:26;0.95;99.99
67249;SHT31;63247;54.300;18.592;2023-11-19T10:02:53;0.82;99.99
67249;SHT31;63247;54.300;18.592;2023-11-19T10:05:21;0.80;99.99
67249;SHT31;63247;54.300;18.592;2023-11-19T10:07:48;0.74;99.99
67249;SHT31;63247;54.300;18.592;2023-11-19T10:10:14;0.85;99.99
67249;SHT31;63247;54.300;18.592;2023-11-19T10:12:44;0.93;99.99
67249;SHT31;63247;54.300;18.592;2023-11-19T10:15:17;0.81;99.99
67249;SHT31;63247;54.300;18.592;2023-11-19T10:17:45;0.72;99.99
67249;SHT31;63247;54.300;18.592;2023-11-19T10:20:10;0.77;99.99
67249;SHT31;63247;54.300;18.592;2023-11-19T10:22:39;0.72;99.99
67249;SHT31;63247;54.300;18.592;2023-11-19T10:25:24;0.87;99.99
67249;SHT31;63247;54.300;18.592;2023-11-19T10:27:54;0.88;99.99
67249;SHT31;63247;54.300;18.592;2023-11-19T10:30:24;0.91;99.99
67249;SHT31;63247;54.300;18.592;2023-11-19T10:33:09;0.87;99.99
67249;SHT31;63247;54.300;18.592;2023-11-19T10:35:56;0.96;99.99
67249;SHT31;63247;54.300;18.592;2023-11-19T10:38:22;0.95;99.99
67249;SHT31;63247;54.300;18.592;2023-11-19T10:40:48;0.85;99.99
67249;SHT31;63247;54.300;18.592;2023-11-19T10:43:16;0.84;99.99
67249;SHT31;63247;54.300;18.592;2023-11-19T10:45:42;0.93;99.99
67249;SHT31;63247;54.300;18.592;2023-11-19T10:48:07;0.98;99.99
67249;SHT31;63247;54.300;18.592;2023-11-19T10:50:37;1.15;99.99
67249;SHT31;63247;54.300;18.592;2023-11-19T10:53:04;1.09;99.99
67249;SHT31;63247;54.300;18.592;2023-11-19T10:55:34;1.02;99.90
67249;SHT31;63247;54.300;18.592;2023-11-19T10:58:08;1.01;99.99
67249;SHT31;63247;54.300;18.592;2023-11-19T11:00:38;1.13;99.99
67249;SHT31;63247;54.300;18.592;2023-11-19T11:03:17;1.16;99.99
67249;SHT31;63247;54.300;18.592;2023-11-19T11:05:43;1.06;99.99
67249;SHT31;63247;54.300;18.592;2023-11-19T11:08:09;1.25;99.99
67249;SHT31;63247;54.300;18.592;2023-11-19T11:10:42;1.30;99.99
67249;SHT31;63247;54.300;18.592;2023-11-19T11:13:09;1.36;99.99
67249;SHT31;63247;54.300;18.592;2023-11-19T11:15:36;1.30;99.99
67249;SHT31;63247;54.300;18.592;2023-11-19T11:18:02;1.33;99.99
67249;SHT31;63247;54.300;18.592;2023-11-19T11:20:32;1.42;99.99
67249;SHT31;63247;54.300;18.592;2023-11-19T11:37:21;1.39;99.99
67249;SHT31;63247;54.300;18.592;2023-11-19T11:39:50;1.26;99.99
67249;SHT31;63247;54.300;18.592;2023-11-19T11:45:09;1.32;99.99
67249;SHT31;63247;54.300;18.592;2023-11-19T11:50:17;1.39;99.99
67249;SHT31;63247;54.300;18.592;2023-11-19T11:57:59;1.10;99.99
67249;SHT31;63247;54.300;18.592;2023-11-19T12:00:29;1.02;99.99
67249;SHT31;63247;54.300;18.592;2023-11-19T12:02:56;0.99;99.99
67249;SHT31;63247;54.300;18.592;2023-11-19T12:05:22;1.12;99.99
67249;SHT31;63247;54.300;18.592;2023-11-19T12:08:00;1.13;99.99
67249;SHT31;63247;54.300;18.592;2023-11-19T12:10:29;0.99;99.99
67249;SHT31;63247;54.300;18.592;2023-11-19T12:12:59;1.08;99.99
67249;SHT31;63247;54.300;18.592;2023-11-19T12:15:25;1.09;99.99
67249;SHT31;63247;54.300;18.592;2023-11-19T12:17:53;1.09;99.99
67249;SHT31;63247;54.300;18.592;2023-11-19T12:20:24;1.25;99.99
67249;SHT31;63247;54.300;18.592;2023-11-19T12:22:51;1.25;99.99
67249;SHT31;63247;54.300;18.592;2023-11-19T12:25:18;1.23;99.99
67249;SHT31;63247;54.300;18.592;2023-11-19T12:27:49;1.05;99.99
67249;SHT31;63247;54.300;18.592;2023-11-19T12:30:32;0.92;99.99
67249;SHT31;63247;54.300;18.592;2023-11-19T12:33:08;0.95;99.99
67249;SHT31;63247;54.300;18.592;2023-11-19T12:35:47;0.82;99.99
67249;SHT31;63247;54.300;18.592;2023-11-19T12:38:24;0.82;99.99
67249;SHT31;63247;54.300;18.592;2023-11-19T12:41:05;0.92;99.99
67249;SHT31;63247;54.300;18.592;2023-11-19T12:43:30;0.88;99.99
67249;SHT31;63247;54.300;18.592;2023-11-19T12:45:56;0.91;99.99
67249;SHT31;63247;54.300;18.592;2023-11-19T12:48:21;0.92;99.99
67249;SHT31;63247;54.300;18.592;2023-11-19T12:53:21;0.99;99.99
67249;SHT31;63247;54.300;18.592;2023-11-19T12:55:47;1.05;99.99
67249;SHT31;63247;54.300;18.592;2023-11-19T12:58:33;1.15;99.99
67249;SHT31;63247;54.300;18.592;2023-11-19T13:01:00;1.08;99.99
67249;SHT31;63247;54.300;18.592;2023-11-19T13:06:04;0.99;99.99
67249;SHT31;63247;54.300;18.592;2023-11-19T13:08:40;0.99;99.99
67249;SHT31;63247;54.300;18.592;2023-11-19T13:11:06;1.06;99.99
67249;SHT31;63247;54.300;18.592;2023-11-19T13:13:53;0.96;99.99
67249;SHT31;63247;54.300;18.592;2023-11-19T13:16:18;1.01;99.99
67249;SHT31;63247;54.300;18.592;2023-11-19T13:18:44;0.87;99.99
67249;SHT31;63247;54.300;18.592;2023-11-19T13:21:10;0.89;99.99
67249;SHT31;63247;54.300;18.592;2023-11-19T13:23:35;0.88;99.99
67249;SHT31;63247;54.300;18.592;2023-11-19T13:26:00;0.89;99.99
67249;SHT31;63247;54.300;18.592;2023-11-19T13:28:26;0.92;99.99
67249;SHT31;63247;54.300;18.592;2023-11-19T13:30:52;0.78;99.99
67249;SHT31;63247;54.300;18.592;2023-11-19T13:33:18;0.84;99.99
67249;SHT31;63247;54.300;18.592;2023-11-19T13:35:44;0.98;99.99
67249;SHT31;63247;54.300;18.592;2023-11-19T13:38:09;1.01;99.99
67249;SHT31;63247;54.300;18.592;2023-11-19T13:40:35;0.89;99.99
67249;SHT31;63247;54.300;18.592;2023-11-19T13:43:00;0.93;99.99
67249;SHT31;63247;54.300;18.592;2023-11-19T13:45:26;0.89;99.99
67249;SHT31;63247;54.300;18.592;2023-11-19T13:47:51;0.98;99.99
67249;SHT31;63247;54.300;18.592;2023-11-19T13:50:17;0.98;99.99
67249;SHT31;63247;54.300;18.592;2023-11-19T13:52:44;0.95;99.99
67249;SHT31;63247;54.300;18.592;2023-11-19T13:55:13;0.92;99.99
67249;SHT31;63247;54.300;18.592;2023-11-19T13:57:40;0.98;99.99
67249;SHT31;63247;54.300;18.592;2023-11-19T14:00:07;1.05;99.99
67249;SHT31;63247;54.300;18.592;2023-11-19T14:02:45;0.95;99.99
67249;SHT31;63247;54.300;18.592;2023-11-19T14:05:11;0.96;99.99
67249;SHT31;63247;54.300;18.592;2023-11-19T14:07:38;1.02;99.99
67249;SHT31;63247;54.300;18.592;2023-11-19T14:10:04;1.09;99.99
67249;SHT31;63247;54.300;18.592;2023-11-19T14:12:37;1.08;99.99
67249;SHT31;63247;54.300;18.592;2023-11-19T14:15:06;0.93;99.99
67249;SHT31;63247;54.300;18.592;2023-11-19T14:17:33;0.92;99.99
67249;SHT31;63247;54.300;18.592;2023-11-19T14:19:59;0.93;99.99
67249;SHT31;63247;54.300;18.592;2023-11-19T14:22:25;0.96;99.99
67249;SHT31;63247;54.300;18.592;2023-11-19T14:24:50;0.95;99.99
67249;SHT31;63247;54.300;18.592;2023-11-19T14:27:16;0.93;99.99
67249;SHT31;63247;54.300;18.592;2023-11-19T14:29:44;0.99;99.99
67249;SHT31;63247;54.300;18.592;2023-11-19T14:32:11;1.05;99.99
67249;SHT31;63247;54.300;18.592;2023-11-19T14:34:36;0.93;99.99
67249;SHT31;63247;54.300;18.592;2023-11-19T14:37:02;0.87;99.99
67249;SHT31;63247;54.300;18.592;2023-11-19T14:39:27;1.01;99.99
67249;SHT31;63247;54.300;18.592;2023-11-19T14:41:54;0.91;99.99
67249;SHT31;63247;54.300;18.592;2023-11-19T14:44:23;0.91;99.99
67249;SHT31;63247;54.300;18.592;2023-11-19T14:46:48;0.89;99.99
67249;SHT31;63247;54.300;18.592;2023-11-19T14:49:14;0.91;99.99
67249;SHT31;63247;54.300;18.592;2023-11-19T14:51:39;0.88;99.99
67249;SHT31;63247;54.300;18.592;2023-11-19T14:54:05;0.77;99.99
67249;SHT31;63247;54.300;18.592;2023-11-19T14:56:31;0.87;99.99
67249;SHT31;63247;54.300;18.592;2023-11-19T14:58:56;0.77;99.99
67249;SHT31;63247;54.300;18.592;2023-11-19T15:01:22;0.82;99.99
67249;SHT31;63247;54.300;18.592;2023-11-19T15:03:47;0.89;99.99
67249;SHT31;63247;54.300;18.592;2023-11-19T15:06:12;0.67;99.99
67249;SHT31;63247;54.300;18.592;2023-11-19T15:08:39;0.77;99.99
67249;SHT31;63247;54.300;18.592;2023-11-19T15:11:04;0.78;99.99
67249;SHT31;63247;54.300;18.592;2023-11-19T15:13:31;0.84;99.99
67249;SHT31;63247;54.300;18.592;2023-11-19T15:15:57;0.84;99.99
67249;SHT31;63247;54.300;18.592;2023-11-19T15:18:23;0.74;99.99
67249;SHT31;63247;54.300;18.592;2023-11-19T15:20:48;0.78;99.99
67249;SHT31;63247;54.300;18.592;2023-11-19T15:23:14;0.65;99.99
67249;SHT31;63247;54.300;18.592;2023-11-19T15:25:40;0.67;99.99
67249;SHT31;63247;54.300;18.592;2023-11-19T15:28:06;0.67;99.99
67249;SHT31;63247;54.300;18.592;2023-11-19T15:30:32;0.56;99.99
67249;SHT31;63247;54.300;18.592;2023-11-19T15:32:57;0.61;99.99
67249;SHT31;63247;54.300;18.592;2023-11-19T15:35:24;0.68;99.99
67249;SHT31;63247;54.300;18.592;2023-11-19T15:37:50;0.60;99.99
67249;SHT31;63247;54.300;18.592;2023-11-19T15:40:15;0.68;99.99
67249;SHT31;63247;54.300;18.592;2023-11-19T15:42:41;0.64;99.99
67249;SHT31;63247;54.300;18.592;2023-11-19T15:45:08;0.61;99.99
67249;SHT31;63247;54.300;18.592;2023-11-19T15:47:34;0.65;99.99
67249;SHT31;63247;54.300;18.592;2023-11-19T15:50:01;0.64;99.99
67249;SHT31;63247;54.300;18.592;2023-11-19T15:52:26;0.64;99.99
67249;SHT31;63247;54.300;18.592;2023-11-19T15:54:52;0.70;99.99
67249;SHT31;63247;54.300;18.592;2023-11-19T15:57:18;0.67;99.99